Time;durP1;ratioP1;P1;durP2;ratioP2;P2;SDS_P1;SDS_P2;PMS_P1;PMS_P2;Temp;Humidity;BMP_temperature;BMP_pressure;BME280_temperature;BME280_humidity;BME280_pressure;Samples;Min_cycle;Max_cycle;Signal;HPM_P1;HPM_P2
2023/05/24 00:01:37;;;;;;;6.30;4.15;;;;;;;14.56;85.02;64490.22;5050033;28;20682;-57
2023/05/24 00:04:03;;;;;;;6.78;4.47;;;;;;;14.59;85.02;64493.50;5053404;28;20297;-57
2023/05/24 00:06:28;;;;;;;8.65;4.93;;;;;;;14.53;87.43;64484.94;5052916;28;20636;-57
2023/05/24 00:08:54;;;;;;;6.13;4.18;;;;;;;14.63;87.90;64495.91;5052937;28;20690;-57
2023/05/24 00:11:21;;;;;;;7.97;4.03;;;;;;;14.64;88.09;64497.03;5053051;28;20296;-57
2023/05/24 00:13:46;;;;;;;7.35;4.38;;;;;;;14.75;87.40;64509.09;5052978;28;20214;-59
2023/05/24 00:16:12;;;;;;;7.07;4.63;;;;;;;14.79;88.64;64512.94;5052890;28;20686;-59
2023/05/24 00:18:40;;;;;;;6.57;4.50;;;;;;;14.81;88.11;64517.69;5052773;28;20210;-58
2023/05/24 00:21:09;;;;;;;5.75;4.15;;;;;;;14.95;86.82;64531.09;5052736;28;20229;-58
2023/05/24 00:23:35;;;;;;;9.25;4.97;;;;;;;14.99;85.82;64538.03;5052940;28;20569;-57
2023/05/24 00:26:02;;;;;;;7.68;4.50;;;;;;;14.95;86.89;64531.09;5052563;28;20204;-57
2023/05/24 00:28:27;;;;;;;8.75;4.60;;;;;;;14.83;88.19;64515.38;5052830;28;20219;-59
2023/05/24 00:30:53;;;;;;;6.75;5.10;;;;;;;14.71;90.06;64506.69;5052418;28;20197;-57
2023/05/24 00:33:18;;;;;;;5.90;4.80;;;;;;;14.67;90.99;64499.75;5052473;28;20233;-57
2023/05/24 00:35:44;;;;;;;5.68;4.80;;;;;;;14.91;88.66;64524.16;5052659;28;20668;-58
2023/05/24 00:38:16;;;;;;;5.05;4.45;;;;;;;14.87;88.58;64519.75;5052398;28;20239;-59
2023/05/24 00:40:42;;;;;;;8.98;4.88;;;;;;;14.99;88.31;64532.94;5052391;28;20722;-57
2023/05/24 00:43:07;;;;;;;7.00;4.78;;;;;;;14.79;87.36;64516.03;5052547;28;20663;-59
2023/05/24 00:45:33;;;;;;;6.75;4.30;;;;;;;14.55;88.59;64489.66;5052387;28;20264;-57
2023/05/24 00:47:58;;;;;;;4.70;4.13;;;;;;;14.29;89.73;64461.66;5052347;28;20216;-57
2023/05/24 00:50:24;;;;;;;5.63;4.25;;;;;;;14.19;91.35;64447.56;5052183;28;20192;-57
2023/05/24 00:52:50;;;;;;;6.07;4.75;;;;;;;14.15;92.13;64443.16;5052036;28;20190;-57
2023/05/24 00:55:16;;;;;;;4.97;4.30;;;;;;;14.24;91.14;64455.59;5052081;28;20236;-58
2023/05/24 00:57:41;;;;;;;8.13;4.50;;;;;;;14.44;90.03;64477.59;5052049;28;20251;-58
2023/05/24 01:00:08;;;;;;;6.57;4.60;;;;;;;14.43;90.09;64473.94;5051751;28;20691;-57
2023/05/24 01:02:33;;;;;;;10.18;4.32;;;;;;;14.41;89.99;64468.66;5052020;28;20188;-57
2023/05/24 01:04:59;;;;;;;7.97;5.47;;;;;;;14.38;90.03;64468.47;5033847;28;20221;-58
2023/05/24 01:07:59;;;;;;;8.68;4.25;;;;;;;14.25;90.12;64457.22;5052064;28;20219;-58
2023/05/24 01:10:46;;;;;;;7.35;4.28;;;;;;;14.21;90.28;64452.84;5051786;28;20225;-58
2023/05/24 01:13:23;;;;;;;10.80;4.50;;;;;;;14.06;91.30;64433.25;5051270;28;20745;-56
2023/05/24 01:16:16;;;;;;;5.75;4.07;;;;;;;14.05;90.42;64434.72;5033984;28;20193;-56
2023/05/24 01:18:51;;;;;;;5.38;4.20;;;;;;;14.09;89.31;64442.19;5051737;28;20253;-57
2023/05/24 01:21:38;;;;;;;5.75;4.38;;;;;;;13.84;90.13;64411.63;5051687;28;20654;-57
2023/05/24 01:24:13;;;;;;;5.82;3.97;;;;;;;13.87;92.22;64414.94;5051849;28;20213;-57
2023/05/24 01:27:00;;;;;;;10.77;4.82;;;;;;;13.83;93.42;64408.00;5051552;28;20655;-57
2023/05/24 01:29:28;;;;;;;5.35;3.97;;;;;;;13.84;94.54;64411.63;5050682;28;20752;-57
2023/05/24 01:31:53;;;;;;;5.25;4.35;;;;;;;13.80;95.63;64407.78;5051656;28;20197;-57
2023/05/24 01:34:19;;;;;;;6.28;4.18;;;;;;;13.93;94.41;64416.47;5051874;28;20320;-58
2023/05/24 01:36:44;;;;;;;6.20;3.92;;;;;;;14.10;93.05;64438.22;5051481;28;20198;-57
2023/05/24 01:39:10;;;;;;;9.38;4.53;;;;;;;14.13;92.65;64438.97;5051099;28;20292;-56
2023/05/24 01:42:03;;;;;;;7.55;4.30;;;;;;;13.98;93.24;64427.00;5033266;28;20632;-55
2023/05/24 01:44:41;;;;;;;6.38;4.43;;;;;;;13.90;95.24;64413.16;5033422;28;20201;-57
2023/05/24 01:47:27;;;;;;;6.57;4.57;;;;;;;13.93;95.87;64422.09;5051406;28;20272;-57
2023/05/24 01:50:16;;;;;;;7.47;5.18;;;;;;;13.90;96.37;64418.78;5051465;28;20768;-57
2023/05/24 01:52:44;;;;;;;11.88;5.07;;;;;;;13.93;96.41;64419.56;5051463;28;20315;-57
2023/05/24 01:55:14;;;;;;;8.05;5.57;;;;;;;13.79;97.17;64404.19;5051428;28;20185;-55
2023/05/24 01:57:43;;;;;;;7.40;4.65;;;;;;;13.67;97.43;64390.44;5033430;28;20189;-55
2023/05/24 02:00:10;;;;;;;5.80;4.82;;;;;;;13.48;96.79;64368.16;5051093;28;20224;-58
2023/05/24 02:02:36;;;;;;;13.07;5.13;;;;;;;13.42;96.55;64366.63;5033559;28;20195;-56
2023/05/24 02:05:02;;;;;;;8.05;4.95;;;;;;;13.43;96.32;64364.66;5051146;28;20205;-57
2023/05/24 02:07:28;;;;;;;8.32;4.75;;;;;;;13.38;96.25;64359.72;5051007;28;20263;-58
2023/05/24 02:09:53;;;;;;;7.68;4.97;;;;;;;13.30;97.36;64350.94;5050960;28;20237;-59
2023/05/24 02:12:19;;;;;;;6.57;4.47;;;;;;;13.41;97.57;64365.53;5051015;28;20709;-57
2023/05/24 02:14:45;;;;;;;6.22;4.45;;;;;;;13.52;97.87;64373.97;5050852;28;20205;-58
2023/05/24 02:17:10;;;;;;;7.90;4.55;;;;;;;13.49;97.59;64371.78;5050994;28;20225;-57
2023/05/24 02:19:36;;;;;;;5.22;4.30;;;;;;;13.45;97.49;64369.38;5050975;28;20678;-57
2023/05/24 02:22:02;;;;;;;9.40;4.90;;;;;;;13.27;96.88;64349.63;5050834;28;20182;-58
2023/05/24 02:24:28;;;;;;;5.97;3.72;;;;;;;13.22;95.48;64342.16;5050518;28;20271;-58
2023/05/24 02:26:54;;;;;;;7.22;4.47;;;;;;;13.22;96.24;64344.69;5049924;28;20189;-59
2023/05/24 02:29:21;;;;;;;6.00;4.28;;;;;;;13.12;95.45;64331.19;5050516;28;20217;-58
2023/05/24 02:31:49;;;;;;;6.40;4.40;;;;;;;12.96;95.55;64316.13;5050613;28;20228;-59
2023/05/24 02:34:14;;;;;;;10.80;4.10;;;;;;;12.88;95.96;64307.34;5050512;28;20221;-61
2023/05/24 02:36:41;;;;;;;6.30;4.23;;;;;;;12.88;97.27;64307.34;5050588;28;20232;-56
2023/05/24 02:39:13;;;;;;;6.63;3.72;;;;;;;12.92;95.88;64311.75;5050616;28;20221;-57
2023/05/24 02:41:38;;;;;;;5.70;5.00;;;;;;;12.89;96.75;64307.91;5050536;28;20178;-59
2023/05/24 02:44:04;;;;;;;6.10;4.03;;;;;;;12.80;97.50;64298.03;5050783;28;20294;-57
2023/05/24 02:46:29;;;;;;;7.77;3.97;;;;;;;12.78;98.47;64296.38;5050512;28;20215;-56
2023/05/24 02:48:55;;;;;;;5.38;4.00;;;;;;;12.89;98.38;64307.91;5050408;28;20217;-56
2023/05/24 02:51:20;;;;;;;5.53;4.72;;;;;;;12.85;98.62;64301.53;5050929;28;20197;-60
2023/05/24 02:53:45;;;;;;;10.83;6.73;;;;;;;12.97;98.13;64317.22;5050327;28;20221;-57
2023/05/24 02:56:12;;;;;;;7.57;5.70;;;;;;;13.06;95.87;64327.13;5050285;28;20557;-57
2023/05/24 02:58:39;;;;;;;6.72;4.60;;;;;;;13.06;97.04;64327.13;5032514;28;20245;-59
2023/05/24 03:01:06;;;;;;;5.90;4.53;;;;;;;12.95;97.70;64314.50;5050207;28;20702;-55
2023/05/24 03:03:32;;;;;;;6.60;4.80;;;;;;;13.01;97.26;64319.06;5050391;28;20213;-55
2023/05/24 03:05:57;;;;;;;8.07;4.90;;;;;;;13.07;94.95;64325.69;5050255;28;20188;-56
2023/05/24 03:08:22;;;;;;;5.47;4.35;;;;;;;13.04;94.08;64322.41;5050622;28;20308;-56
2023/05/24 03:10:48;;;;;;;8.00;4.90;;;;;;;13.09;96.36;64327.88;5050462;28;20537;-56
2023/05/24 03:13:13;;;;;;;5.65;4.47;;;;;;;13.01;95.13;64319.06;5050363;28;20209;-55
2023/05/24 03:15:39;;;;;;;4.85;4.35;;;;;;;13.12;97.56;64328.66;5032190;28;20532;-56
2023/05/24 03:18:04;;;;;;;4.80;4.17;;;;;;;13.14;97.25;64330.84;5049827;28;20263;-59
2023/05/24 03:20:30;;;;;;;5.45;4.18;;;;;;;13.21;97.26;64343.03;5050247;28;20212;-59
2023/05/24 03:22:56;;;;;;;9.63;4.47;;;;;;;13.26;96.84;64346.00;5049958;28;20655;-59
2023/05/24 03:25:21;;;;;;;5.27;4.50;;;;;;;13.29;97.21;64349.81;5050009;28;20191;-59
2023/05/24 03:27:46;;;;;;;6.80;5.07;;;;;;;13.38;95.93;64359.72;5049935;28;20232;-59
2023/05/24 03:30:12;;;;;;;6.70;4.85;;;;;;;13.38;96.40;64361.69;5031936;28;20189;-57
2023/05/24 03:32:38;;;;;;;7.75;4.00;;;;;;;13.42;97.08;64366.06;5049803;28;20190;-57
2023/05/24 03:35:03;;;;;;;6.05;4.25;;;;;;;13.45;94.15;64371.91;5049761;28;20201;-60
2023/05/24 03:37:29;;;;;;;6.72;4.60;;;;;;;13.54;94.67;64379.25;5051516;28;20242;-57
2023/05/24 03:39:54;;;;;;;6.45;4.10;;;;;;;13.62;92.68;64384.94;5053105;28;20214;-56
2023/05/24 03:42:21;;;;;;;8.02;4.63;;;;;;;13.44;92.81;64365.75;5053132;28;20182;-58
2023/05/24 03:44:46;;;;;;;7.10;3.70;;;;;;;13.47;92.23;64371.56;5053121;28;20237;-56
2023/05/24 03:47:12;;;;;;;7.60;4.20;;;;;;;13.37;91.10;64358.59;5053239;28;20209;-56
2023/05/24 03:49:37;;;;;;;5.03;3.88;;;;;;;13.25;89.21;64342.91;5053337;28;20209;-55
2023/05/24 03:52:02;;;;;;;4.68;3.75;;;;;;;13.06;90.38;64324.03;5053029;28;20185;-59
2023/05/24 03:54:28;;;;;;;8.35;4.13;;;;;;;12.89;94.51;64305.38;5052772;28;20659;-59
2023/05/24 03:56:53;;;;;;;7.03;3.70;;;;;;;13.03;92.34;64321.28;5053043;28;20246;-60
2023/05/24 03:59:19;;;;;;;6.18;4.07;;;;;;;13.04;92.34;64322.41;5052910;28;20214;-58
2023/05/24 04:01:44;;;;;;;5.72;4.70;;;;;;;12.94;92.97;64311.41;5052979;28;20212;-58
2023/05/24 04:04:10;;;;;;;7.23;4.37;;;;;;;12.99;93.44;64316.88;5052751;28;20272;-59
2023/05/24 04:06:36;;;;;;;6.68;3.92;;;;;;;13.01;93.50;64319.06;5052685;28;20682;-59
2023/05/24 04:09:04;;;;;;;6.22;4.80;;;;;;;12.98;92.66;64315.78;5052561;28;20216;-59
2023/05/24 04:11:31;;;;;;;9.95;5.22;;;;;;;13.00;93.95;64319.97;5052590;28;20310;-60
2023/05/24 04:13:59;;;;;;;7.20;4.57;;;;;;;13.02;94.24;64319.63;5052885;28;20225;-59
2023/05/24 04:16:26;;;;;;;5.87;4.43;;;;;;;13.13;94.60;64331.72;5052401;28;20185;-57
2023/05/24 04:18:54;;;;;;;7.85;4.50;;;;;;;13.14;94.47;64333.38;5052667;28;20240;-56
2023/05/24 04:21:20;;;;;;;7.37;4.43;;;;;;;13.25;94.61;64345.44;5052447;28;20205;-56
2023/05/24 04:23:45;;;;;;;5.77;4.27;;;;;;;13.38;92.65;64359.72;5052465;28;20219;-55
2023/05/24 04:26:11;;;;;;;5.05;4.55;;;;;;;13.44;92.63;64368.81;5052404;28;20235;-55
2023/05/24 04:28:37;;;;;;;5.47;4.07;;;;;;;13.49;92.39;64373.78;5034763;28;20271;-56
2023/05/24 04:31:05;;;;;;;6.97;4.32;;;;;;;13.49;91.89;64371.25;5034727;28;20189;-55
2023/05/24 04:33:31;;;;;;;5.90;4.28;;;;;;;13.43;90.86;64367.72;5052825;28;20217;-56
2023/05/24 04:35:59;;;;;;;6.40;4.60;;;;;;;13.61;90.16;64386.94;5052565;28;20193;-56
2023/05/24 04:38:28;;;;;;;5.50;4.22;;;;;;;13.66;89.49;64389.34;5052665;28;20214;-54
2023/05/24 04:40:55;;;;;;;7.15;4.70;;;;;;;13.98;100.00;64424.47;5052216;28;20213;-56
2023/05/24 04:43:21;;;;;;;5.70;4.18;;;;;;;14.12;100.00;64440.41;5052357;28;20216;-56
2023/05/24 04:45:46;;;;;;;9.85;4.78;;;;;;;14.28;94.53;64455.47;5052504;28;20190;-59
2023/05/24 04:48:11;;;;;;;7.40;5.20;;;;;;;14.28;91.71;64460.00;5051276;28;20237;-59
2023/05/24 04:50:37;;;;;;;12.70;5.20;;;;;;;14.35;100.00;64464.59;5052452;28;20186;-59
2023/05/24 04:53:03;;;;;;;7.38;4.85;;;;;;;14.65;98.38;64498.13;5034643;28;20196;-59
2023/05/24 04:55:28;;;;;;;8.10;4.68;;;;;;;14.80;95.46;64511.53;5052315;28;20688;-54
2023/05/24 04:57:54;;;;;;;8.75;6.10;;;;;;;14.71;87.98;64501.63;5052345;28;20189;-54
2023/05/24 05:00:20;;;;;;;7.53;5.57;;;;;;;14.50;90.44;64479.09;5052103;28;20263;-60
2023/05/24 05:05:30;;;;;;;7.72;5.45;;;;;;;15.13;100.00;64548.34;5052249;28;20210;-56
2023/05/24 05:07:56;;;;;;;11.10;6.22;;;;;;;15.10;87.44;64545.06;5051980;28;20189;-57
2023/05/24 05:10:21;;;;;;;8.55;5.82;;;;;;;14.89;87.96;64524.50;5052037;28;20182;-55
2023/05/24 05:12:48;;;;;;;6.20;4.82;;;;;;;14.85;87.29;64522.06;5051709;28;20221;-57
2023/05/24 05:15:13;;;;;;;5.70;4.65;;;;;;;14.60;87.97;64495.16;5051840;28;20225;-56
2023/05/24 05:17:39;;;;;;;9.05;5.05;;;;;;;14.75;87.67;64508.56;5051916;28;20706;-56
2023/05/24 05:20:05;;;;;;;10.30;5.10;;;;;;;14.54;90.37;64488.56;5051549;28;20726;-55
2023/05/24 05:22:31;;;;;;;6.45;5.07;;;;;;;14.60;91.22;64492.63;5051877;28;20197;-58
2023/05/24 05:24:56;;;;;;;7.18;5.63;;;;;;;14.40;93.51;64467.56;5051721;28;20206;-64
2023/05/24 05:27:22;;;;;;;7.97;5.50;;;;;;;14.60;93.55;64492.63;5051322;28;20593;-60
2023/05/24 05:29:47;;;;;;;9.52;5.50;;;;;;;14.61;93.03;64493.72;5051599;28;20262;-60
2023/05/24 05:32:13;;;;;;;10.60;5.90;;;;;;;14.61;94.27;64493.72;5069320;28;20181;-62
2023/05/24 05:34:39;;;;;;;8.05;6.32;;;;;;;14.54;94.58;64485.47;5071223;28;20205;-59
2023/05/24 05:37:04;;;;;;;10.60;6.07;;;;;;;14.63;94.60;64495.91;5071556;28;20185;-61
2023/05/24 05:39:30;;;;;;;8.45;5.70;;;;;;;14.72;92.67;64502.72;5071403;28;20220;-60
2023/05/24 05:41:56;;;;;;;10.05;5.57;;;;;;;14.78;91.20;64512.41;5070401;28;20191;-59
2023/05/24 05:44:21;;;;;;;6.60;5.13;;;;;;;14.73;90.18;64506.34;5071701;28;20216;-59
2023/05/24 05:46:47;;;;;;;9.68;6.03;;;;;;;14.56;92.13;64485.16;5071520;28;20185;-60
2023/05/24 05:49:14;;;;;;;8.07;6.15;;;;;;;14.49;92.31;64480.53;5053427;28;20590;-60
2023/05/24 05:51:40;;;;;;;9.75;6.82;;;;;;;14.59;92.48;64491.53;5071313;28;20180;-60
2023/05/24 05:54:08;;;;;;;7.60;5.78;;;;;;;14.83;91.87;64517.91;5071261;28;20213;-60
2023/05/24 05:56:39;;;;;;;10.40;6.30;;;;;;;15.02;90.39;64541.34;5071236;28;20181;-60
2023/05/24 05:59:05;;;;;;;11.38;6.57;;;;;;;15.07;89.15;64544.28;5070121;28;20270;-59
2023/05/24 06:01:31;;;;;;;7.75;5.88;;;;;;;15.08;88.69;64545.41;5070247;28;20634;-59
2023/05/24 06:03:56;;;;;;;8.40;6.70;;;;;;;15.11;87.37;64551.22;5070758;28;20208;-59
2023/05/24 06:06:21;;;;;;;7.93;5.93;;;;;;;15.01;88.79;64535.16;5070951;28;20614;-58
2023/05/24 06:08:47;;;;;;;14.02;6.47;;;;;;;15.09;90.32;64546.47;5053010;28;20212;-60
2023/05/24 06:11:13;;;;;;;11.10;5.95;;;;;;;15.14;89.54;64551.44;5052763;28;20261;-58
2023/05/24 06:13:39;;;;;;;14.15;6.82;;;;;;;15.34;89.74;64572.88;5070442;28;20285;-58
2023/05/24 06:16:07;;;;;;;10.40;6.40;;;;;;;15.48;89.11;64590.84;5070726;28;20557;-58
2023/05/24 06:18:33;;;;;;;12.85;6.78;;;;;;;15.57;88.45;64600.75;5070650;28;20284;-58
2023/05/24 06:20:58;;;;;;;9.10;5.97;;;;;;;15.70;88.46;64612.50;5070886;28;20240;-61
2023/05/24 06:23:24;;;;;;;9.05;5.95;;;;;;;15.80;89.61;64624.03;5070936;28;20347;-58
2023/05/24 06:25:56;;;;;;;9.45;5.97;;;;;;;15.86;87.07;64630.09;5070546;28;20192;-57
2023/05/24 06:28:21;;;;;;;11.45;6.68;;;;;;;15.88;87.97;64629.75;5070616;28;20350;-58
2023/05/24 06:30:47;;;;;;;7.53;6.15;;;;;;;15.89;86.05;64633.97;5070626;28;20267;-59
2023/05/24 06:33:12;;;;;;;10.00;5.65;;;;;;;16.01;85.80;64646.59;5036122;28;20366;-60
2023/05/24 06:35:38;;;;;;;7.55;5.50;;;;;;;16.05;84.08;64647.91;5070901;28;20193;-60
2023/05/24 06:38:03;;;;;;;12.02;6.93;;;;;;;16.12;84.08;64658.69;5070455;28;20273;-58
2023/05/24 06:40:29;;;;;;;13.40;7.05;;;;;;;16.33;83.72;64681.81;5070290;28;20303;-58
2023/05/24 06:42:55;;;;;;;8.82;6.50;;;;;;;16.53;82.60;64703.88;5070250;28;20280;-58
2023/05/24 06:45:20;;;;;;;11.10;5.80;;;;;;;16.66;81.84;64720.72;5070488;28;20192;-58
2023/05/24 06:47:46;;;;;;;9.15;5.82;;;;;;;16.82;82.29;64737.78;5070344;28;20201;-58
2023/05/24 06:50:11;;;;;;;10.95;6.40;;;;;;;16.95;80.30;64751.56;5070145;28;20222;-57
2023/05/24 06:52:36;;;;;;;8.77;6.35;;;;;;;16.86;79.79;64739.09;5070042;28;20578;-57
2023/05/24 06:55:02;;;;;;;8.13;5.80;;;;;;;16.71;79.27;64723.13;5052274;28;20201;-57
2023/05/24 06:57:28;;;;;;;14.82;5.75;;;;;;;16.93;79.05;64744.81;5070152;28;20667;-57
2023/05/24 06:59:53;;;;;;;8.05;5.40;;;;;;;17.06;78.21;64759.13;5069937;28;20219;-57
2023/05/24 07:02:22;;;;;;;15.50;6.07;;;;;;;17.19;77.01;64778.00;5070010;28;20184;-57
2023/05/24 07:04:48;;;;;;;10.98;5.30;;;;;;;17.25;76.12;64782.06;5069865;28;20212;-57
2023/05/24 07:07:14;;;;;;;11.15;5.18;;;;;;;17.38;74.25;64794.41;5069876;28;20180;-57
2023/05/24 07:09:41;;;;;;;12.52;6.10;;;;;;;17.31;75.79;64791.22;5070043;28;20204;-58
2023/05/24 07:12:06;;;;;;;11.27;5.03;;;;;;;17.55;74.60;64815.69;5071422;28;20192;-58
2023/05/24 07:14:32;;;;;;;9.55;5.05;;;;;;;17.71;74.87;64832.22;5055682;28;20220;-56
2023/05/24 07:16:58;;;;;;;11.68;6.93;;;;;;;17.73;74.62;64835.00;5073627;28;20322;-58
2023/05/24 07:19:27;;;;;;;7.95;6.00;;;;;;;17.92;73.46;64852.81;5073519;28;20864;-57
2023/05/24 07:21:54;;;;;;;12.18;6.28;;;;;;;18.03;74.06;64865.50;5073313;28;20193;-57
2023/05/24 07:24:21;;;;;;;9.25;6.60;;;;;;;18.28;75.33;64893.06;5073356;28;20266;-57
2023/05/24 07:26:48;;;;;;;10.45;6.40;;;;;;;18.28;76.12;64895.09;5073547;28;20196;-57
2023/05/24 07:29:14;;;;;;;17.05;7.00;;;;;;;18.35;75.32;64900.78;5073690;28;20213;-56
2023/05/24 07:31:39;;;;;;;13.43;6.53;;;;;;;18.33;74.89;64898.03;5073487;28;20188;-57
2023/05/24 07:34:05;;;;;;;13.30;6.20;;;;;;;18.47;73.24;64918.03;5073832;28;20212;-57
2023/05/24 07:36:32;;;;;;;12.15;6.68;;;;;;;18.64;72.67;64934.81;5073599;28;20644;-58
2023/05/24 07:38:59;;;;;;;14.63;6.65;;;;;;;18.72;72.46;64941.09;5073440;28;20698;-57
2023/05/24 07:41:26;;;;;;;10.18;6.72;;;;;;;18.98;70.33;64971.75;5073209;28;20223;-57
2023/05/24 07:43:52;;;;;;;12.82;6.00;;;;;;;19.07;70.50;64982.25;5073377;28;20658;-58
2023/05/24 07:46:17;;;;;;;10.98;6.40;;;;;;;18.96;71.65;64967.00;5072803;28;20197;-57
2023/05/24 07:48:43;;;;;;;9.90;6.57;;;;;;;19.00;72.32;64974.53;5055036;28;20216;-59
2023/05/24 07:51:09;;;;;;;12.07;6.82;;;;;;;19.13;71.86;64990.88;5073260;28;20673;-57
2023/05/24 07:53:36;;;;;;;9.52;6.80;;;;;;;19.16;68.78;64986.53;5073408;28;20247;-57
2023/05/24 07:56:02;;;;;;;7.88;5.68;;;;;;;19.23;67.09;64994.22;5072839;28;20200;-56
2023/05/24 07:58:28;;;;;;;10.48;6.18;;;;;;;19.43;66.40;65018.91;5073193;28;20216;-57
2023/05/24 08:00:53;;;;;;;13.00;6.13;;;;;;;19.35;64.28;65010.06;5072893;28;20653;-58
2023/05/24 08:03:19;;;;;;;9.10;6.18;;;;;;;19.34;64.36;65008.41;5072941;28;20217;-58
2023/05/24 08:05:44;;;;;;;12.07;5.82;;;;;;;19.54;65.44;65033.59;5073268;28;20173;-58
2023/05/24 08:08:10;;;;;;;11.02;5.68;;;;;;;19.60;68.73;65037.09;5072780;28;20214;-57
2023/05/24 08:10:35;;;;;;;10.95;7.35;;;;;;;19.73;66.73;65051.47;5073386;28;20203;-58
2023/05/24 08:13:02;;;;;;;12.35;6.50;;;;;;;19.83;65.62;65063.06;5072724;28;20192;-58
2023/05/24 08:15:27;;;;;;;11.38;5.10;;;;;;;20.06;61.65;65091.03;5072777;28;20220;-58
2023/05/24 08:17:53;;;;;;;10.13;5.63;;;;;;;20.10;60.00;65095.44;5072748;28;20619;-58
2023/05/24 08:20:19;;;;;;;9.32;5.03;;;;;;;20.14;60.25;65096.22;5072531;28;20201;-59
2023/05/24 08:22:47;;;;;;;7.38;4.80;;;;;;;20.35;58.11;65117.41;5072362;28;20204;-57
2023/05/24 08:25:13;;;;;;;7.60;5.15;;;;;;;20.50;58.62;65138.56;5054479;28;20296;-58
2023/05/24 08:27:39;;;;;;;10.77;5.55;;;;;;;20.41;59.21;65126.06;5072774;28;20264;-62
2023/05/24 08:30:05;;;;;;;6.85;4.72;;;;;;;20.54;59.09;65140.97;5054699;28;20235;-58
2023/05/24 08:32:31;;;;;;;5.28;4.63;;;;;;;20.53;54.97;65139.31;5072551;28;20232;-59
2023/05/24 08:34:56;;;;;;;8.38;5.32;;;;;;;20.70;55.93;65158.09;5072233;28;20224;-59
2023/05/24 08:37:22;;;;;;;7.13;4.40;;;;;;;20.86;56.80;65178.34;5054653;28;20659;-60
2023/05/24 08:39:48;;;;;;;6.88;4.95;;;;;;;20.97;60.61;65187.94;5072384;28;20645;-58
2023/05/24 08:42:15;;;;;;;10.85;5.72;;;;;;;21.09;59.03;65200.69;5072050;28;20239;-59
2023/05/24 08:44:47;;;;;;;5.55;4.05;;;;;;;21.55;51.91;65254.66;5072312;28;20383;-58
2023/05/24 08:47:14;;;;;;;3.90;3.25;;;;;;;21.32;49.68;65224.13;5054253;28;20197;-60
2023/05/24 08:49:41;;;;;;;4.70;3.40;;;;;;;21.42;48.19;65237.19;5072270;28;20236;-59
2023/05/24 08:52:07;;;;;;;5.88;3.60;;;;;;;21.48;49.20;65243.81;5072128;28;20685;-59
2023/05/24 08:54:35;;;;;;;8.13;3.90;;;;;;;21.58;49.23;65257.44;5072162;28;20240;-59
2023/05/24 08:57:01;;;;;;;6.97;3.42;;;;;;;21.88;48.26;65287.53;5072114;28;20184;-59
2023/05/24 08:59:27;;;;;;;5.97;3.45;;;;;;;21.95;51.46;65295.28;5072474;28;20201;-58
2023/05/24 09:01:53;;;;;;;5.35;3.03;;;;;;;22.09;47.40;65313.91;5071996;28;20318;-61
2023/05/24 09:04:21;;;;;;;6.60;3.45;;;;;;;22.34;48.52;65339.00;5072019;28;20232;-61
2023/05/24 09:06:47;;;;;;;4.55;3.40;;;;;;;22.46;47.41;65356.88;5072114;28;20197;-60
2023/05/24 09:09:17;;;;;;;5.70;3.33;;;;;;;22.56;49.66;65360.78;5072152;28;20231;-59
2023/05/24 09:11:45;;;;;;;9.95;4.00;;;;;;;22.59;48.79;65366.13;5071965;28;20201;-60
2023/05/24 09:14:13;;;;;;;7.80;4.82;;;;;;;22.69;49.54;65377.22;5071917;28;20303;-58
2023/05/24 09:16:38;;;;;;;5.18;3.17;;;;;;;22.86;47.73;65396.06;5071813;28;20292;-59
2023/05/24 09:19:04;;;;;;;6.40;3.90;;;;;;;23.07;49.15;65418.75;5071797;28;20217;-60
2023/05/24 09:21:31;;;;;;;5.35;3.22;;;;;;;22.88;45.24;65395.13;5071551;28;20217;-60
2023/05/24 09:23:57;;;;;;;6.60;4.00;;;;;;;23.01;45.93;65412.66;5072021;28;20221;-60
2023/05/24 09:26:24;;;;;;;4.13;3.35;;;;;;;23.29;44.41;65440.56;5071628;28;20196;-58
2023/05/24 09:28:53;;;;;;;5.55;2.75;;;;;;;23.02;43.60;65413.78;5071741;28;20763;-58
2023/05/24 09:31:30;;;;;;;5.05;3.30;;;;;;;22.96;44.37;65404.56;5071649;28;20229;-59
2023/05/24 09:33:56;;;;;;;5.68;3.80;;;;;;;23.49;44.85;65464.75;5071388;28;20773;-60
2023/05/24 09:36:21;;;;;;;5.57;3.15;;;;;;;23.34;44.77;65453.81;5071262;28;20263;-59
2023/05/24 09:38:47;;;;;;;5.40;4.18;;;;;;;23.40;44.11;65454.78;5071181;28;20659;-60
2023/05/24 09:41:12;;;;;;;5.68;3.75;;;;;;;23.75;45.59;65496.13;5053196;28;20219;-59
2023/05/24 09:43:49;;;;;;;4.75;2.95;;;;;;;23.83;38.65;65502.44;5052180;28;20213;-59
2023/05/24 09:46:21;;;;;;;3.35;2.67;;;;;;;23.93;37.94;65508.38;5071377;28;20218;-58
2023/05/24 09:49:02;;;;;;;3.53;2.80;;;;;;;23.79;38.89;65498.00;5071590;28;20236;-59
2023/05/24 09:51:28;;;;;;;3.42;2.90;;;;;;;23.85;40.18;65502.06;5071439;28;20234;-59
2023/05/24 09:54:00;;;;;;;4.55;2.92;;;;;;;24.03;42.65;65522.03;5071057;28;20326;-58
2023/05/24 09:56:26;;;;;;;4.35;3.30;;;;;;;24.15;41.60;65537.91;5053213;28;20228;-58
2023/05/24 09:58:53;;;;;;;8.55;3.22;;;;;;;24.20;42.43;65543.47;5052946;28;20268;-59
2023/05/24 10:01:23;;;;;;;5.15;3.00;;;;;;;24.39;37.88;65563.97;5071182;28;20282;-63
2023/05/24 10:03:58;;;;;;;5.35;3.30;;;;;;;24.30;41.28;65554.53;5071163;28;20327;-59
2023/05/24 10:06:24;;;;;;;4.72;3.03;;;;;;;24.24;38.94;65545.31;5071167;28;20215;-61
2023/05/24 10:08:50;;;;;;;4.22;3.13;;;;;;;24.65;41.52;65593.38;5070832;28;20240;-60
2023/05/24 10:11:17;;;;;;;3.03;2.63;;;;;;;24.38;39.16;65560.31;5071105;28;20188;-58
2023/05/24 10:13:43;;;;;;;5.50;3.53;;;;;;;24.75;39.09;65604.47;5071130;28;20216;-61
2023/05/24 10:16:09;;;;;;;4.68;3.17;;;;;;;24.94;39.41;65625.00;5070899;28;20211;-59
2023/05/24 10:18:34;;;;;;;3.85;2.97;;;;;;;25.06;37.60;65637.75;5070736;28;20213;-60
2023/05/24 10:21:01;;;;;;;3.67;2.75;;;;;;;25.07;41.71;65638.88;5070773;28;20270;-58
2023/05/24 10:23:31;;;;;;;5.18;3.10;;;;;;;25.38;43.64;65670.69;5070706;28;20205;-60
2023/05/24 10:26:05;;;;;;;6.18;2.72;;;;;;;25.64;38.15;65702.16;5070625;28;20209;-60
2023/05/24 10:28:33;;;;;;;4.68;3.03;;;;;;;25.88;39.18;65728.81;5070646;28;20295;-62
2023/05/24 10:31:01;;;;;;;7.43;3.40;;;;;;;25.94;37.58;65734.94;5070638;28;20212;-60
2023/05/24 10:33:28;;;;;;;4.38;2.85;;;;;;;26.12;38.24;65752.34;5070805;28;20714;-60
2023/05/24 10:35:55;;;;;;;5.00;2.75;;;;;;;26.23;39.07;65767.16;5070598;28;20216;-60
2023/05/24 10:38:23;;;;;;;9.07;2.65;;;;;;;26.47;37.00;65793.81;5070733;28;20274;-60
2023/05/24 10:40:48;;;;;;;4.97;2.75;;;;;;;26.36;33.66;65781.59;5070374;28;20279;-59
2023/05/24 10:43:16;;;;;;;4.47;2.85;;;;;;;25.97;33.26;65735.66;5070538;28;20674;-59
2023/05/24 10:45:46;;;;;;;3.65;2.78;;;;;;;25.98;34.42;65739.91;5069863;28;20268;-59
2023/05/24 10:48:12;;;;;;;3.40;2.78;;;;;;;25.70;33.17;65708.81;5069918;28;20303;-59
2023/05/24 10:50:38;;;;;;;3.65;2.53;;;;;;;26.14;35.04;65757.69;5070538;28;20707;-59
2023/05/24 10:53:13;;;;;;;5.22;2.88;;;;;;;26.47;34.11;65791.78;5070330;28;20247;-60
2023/05/24 10:55:56;;;;;;;5.63;3.10;;;;;;;26.79;36.21;65829.38;5070416;28;20217;-59
2023/05/24 10:58:42;;;;;;;6.38;2.88;;;;;;;26.83;34.13;65833.28;5070631;28;20208;-61
2023/05/24 11:01:13;;;;;;;4.78;3.00;;;;;;;26.87;34.40;65835.69;5070161;28;20223;-59
2023/05/24 11:03:42;;;;;;;3.85;3.17;;;;;;;26.77;33.57;65821.44;5070421;28;20269;-59
2023/05/24 11:06:08;;;;;;;4.93;2.85;;;;;;;26.92;32.89;65843.28;5070142;28;20193;-59
2023/05/24 11:08:34;;;;;;;2.78;2.55;;;;;;;27.13;33.46;65861.47;5070306;28;20616;-61
2023/05/24 11:11:06;;;;;;;3.17;2.75;;;;;;;27.08;37.40;65858.47;5070174;28;20614;-60
2023/05/24 11:13:32;;;;;;;4.50;3.70;;;;;;;27.45;36.71;65899.63;5069976;28;20759;-59
2023/05/24 11:15:59;;;;;;;7.95;3.53;;;;;;;27.54;35.69;65912.22;5070215;28;20292;-59
2023/05/24 11:18:24;;;;;;;5.43;3.03;;;;;;;27.75;32.65;65933.00;5070356;28;20208;-59
2023/05/24 11:20:51;;;;;;;3.63;3.30;;;;;;;27.87;34.53;65943.19;5070071;28;20736;-59
2023/05/24 11:23:16;;;;;;;5.78;3.05;;;;;;;27.38;33.12;65891.84;5052190;28;20212;-59
2023/05/24 11:25:43;;;;;;;4.07;2.85;;;;;;;27.93;32.26;65955.63;5069907;28;20571;-59
2023/05/24 11:28:10;;;;;;;3.53;3.17;;;;;;;28.34;36.42;65998.09;5069971;28;20213;-60
2023/05/24 11:30:45;;;;;;;7.82;3.90;;;;;;;28.46;35.96;66013.50;5070324;28;20242;-57
2023/05/24 11:33:18;;;;;;;4.47;3.03;;;;;;;28.53;35.43;66016.06;5069707;28;20246;-56
2023/05/24 11:35:48;;;;;;;5.97;3.25;;;;;;;28.42;33.56;66009.03;5068310;28;20193;-57